createdAt,value
2022-08-12T00:00:36.273Z,20.68
2022-08-12T00:03:21.851Z,20.63
2022-08-12T00:06:09.587Z,20.59
2022-08-12T00:08:57.533Z,20.63
2022-08-12T00:11:45.297Z,20.44
2022-08-12T00:14:32.011Z,20.45
2022-08-12T00:17:18.507Z,20.33
2022-08-12T00:20:04.483Z,20.06
2022-08-12T00:22:58.815Z,20.09
2022-08-12T00:26:22.993Z,20.11
2022-08-12T00:29:02.867Z,20.10
2022-08-12T00:31:47.983Z,20.06
2022-08-12T00:34:35.785Z,20.06
2022-08-12T00:37:22.675Z,20.08
2022-08-12T00:40:11.621Z,20.19
2022-08-12T00:42:41.656Z,20.09
2022-08-12T00:45:10.083Z,20.12
2022-08-12T00:47:38.677Z,20.11
2022-08-12T00:50:06.882Z,20.26
2022-08-12T00:52:35.374Z,20.28
2022-08-12T00:55:04.092Z,20.25
2022-08-12T00:57:38.038Z,20.17
2022-08-12T01:00:13.450Z,20.20
2022-08-12T01:02:49.101Z,20.09
2022-08-12T01:05:39.866Z,20.03
2022-08-12T01:08:28.054Z,20.01
2022-08-12T01:11:14.967Z,20.03
2022-08-12T01:13:47.963Z,19.99
2022-08-12T01:16:23.074Z,19.91
2022-08-12T01:18:54.026Z,19.85
2022-08-12T01:21:35.727Z,19.89
2022-08-12T01:24:36.617Z,19.82
2022-08-12T01:27:08.162Z,19.82
2022-08-12T01:29:43.812Z,19.77
2022-08-12T01:32:17.234Z,19.84
2022-08-12T01:35:07.218Z,19.76
2022-08-12T01:37:49.759Z,19.79
2022-08-12T01:40:34.041Z,19.68
2022-08-12T01:43:11.486Z,19.63
2022-08-12T01:45:59.456Z,19.64
2022-08-12T01:48:49.046Z,19.67
2022-08-12T01:52:20.828Z,19.52
2022-08-12T01:54:42.838Z,19.38
2022-08-12T01:57:57.851Z,19.47
2022-08-12T02:00:15.998Z,19.42
2022-08-12T02:02:58.585Z,19.38
2022-08-12T02:05:55.897Z,19.41
2022-08-12T02:09:10.608Z,19.43
2022-08-12T02:12:08.812Z,19.26
2022-08-12T02:15:04.606Z,19.25
2022-08-12T02:17:55.028Z,19.39
2022-08-12T02:20:54.121Z,19.39
2022-08-12T02:23:26.721Z,19.30
2022-08-12T02:25:59.594Z,19.32
2022-08-12T02:28:26.980Z,19.33
2022-08-12T02:30:55.654Z,19.31
2022-08-12T02:33:23.124Z,19.40
2022-08-12T02:35:51.493Z,19.45
2022-08-12T02:38:21.634Z,19.45
2022-08-12T02:40:54.797Z,19.48
2022-08-12T02:43:41.354Z,19.39
2022-08-12T02:46:14.874Z,19.46
2022-08-12T02:49:06.471Z,19.42
2022-08-12T02:51:40.436Z,19.34
2022-08-12T02:54:08.009Z,19.41
2022-08-12T02:56:40.998Z,19.25
2022-08-12T02:59:16.037Z,19.33
2022-08-12T03:02:03.217Z,19.26
2022-08-12T03:04:46.898Z,19.23
2022-08-12T03:07:38.115Z,19.29
2022-08-12T03:10:17.798Z,19.23
2022-08-12T03:12:51.062Z,19.20
2022-08-12T03:15:22.977Z,19.23
2022-08-12T03:18:26.100Z,19.22
2022-08-12T03:20:56.260Z,19.14
2022-08-12T03:23:29.888Z,18.98
2022-08-12T03:26:00.584Z,19.06
2022-08-12T03:28:49.965Z,19.05
2022-08-12T03:31:24.537Z,19.08
2022-08-12T03:34:02.144Z,19.08
2022-08-12T03:36:36.344Z,18.91
2022-08-12T03:39:18.881Z,19.04
2022-08-12T03:42:18.878Z,19.03
2022-08-12T03:45:16.425Z,19.03
2022-08-12T03:48:13.358Z,18.95
2022-08-12T03:51:06.605Z,18.98
2022-08-12T03:53:53.274Z,18.96
2022-08-12T03:56:39.050Z,18.93
2022-08-12T03:59:26.318Z,18.78
2022-08-12T04:01:57.463Z,18.68
2022-08-12T04:04:34.711Z,18.64
2022-08-12T04:07:06.524Z,18.58
2022-08-12T04:09:34.466Z,18.52
2022-08-12T04:12:22.118Z,18.47
2022-08-12T04:14:56.980Z,18.52
2022-08-12T04:17:28.232Z,18.43
2022-08-12T04:19:56.642Z,18.47
2022-08-12T04:22:28.894Z,18.52
2022-08-12T04:25:01.461Z,18.43
2022-08-12T04:27:32.597Z,18.46
2022-08-12T04:30:21.195Z,18.26
2022-08-12T04:32:50.713Z,18.45
2022-08-12T04:35:18.121Z,18.37
2022-08-12T04:37:59.130Z,18.21
2022-08-12T04:40:30.731Z,18.22
2022-08-12T04:42:58.643Z,18.31
2022-08-12T04:45:25.444Z,18.25
2022-08-12T04:47:52.688Z,18.15
2022-08-12T04:50:35.229Z,18.17
2022-08-12T04:53:08.940Z,17.92
2022-08-12T04:55:38.632Z,18.00
2022-08-12T04:58:09.263Z,18.13
2022-08-12T05:00:37.864Z,18.16
2022-08-12T05:03:07.262Z,18.19
2022-08-12T05:05:36.402Z,18.21
2022-08-12T05:08:04.515Z,18.21
2022-08-12T05:10:33.990Z,18.20
2022-08-12T05:13:07.751Z,18.22
2022-08-12T05:15:53.033Z,18.09
2022-08-12T05:18:25.302Z,18.04
2022-08-12T05:20:56.053Z,18.07
2022-08-12T05:23:22.913Z,18.05
2022-08-12T05:25:51.900Z,18.08
2022-08-12T05:28:19.190Z,18.10
2022-08-12T05:30:46.606Z,18.23
2022-08-12T05:33:15.579Z,18.13
2022-08-12T05:35:44.902Z,18.25
2022-08-12T05:38:36.575Z,18.23
2022-08-12T05:41:06.853Z,18.30
2022-08-12T05:43:35.937Z,18.23
2022-08-12T05:46:02.834Z,18.26
2022-08-12T05:48:32.470Z,18.37
2022-08-12T05:50:59.291Z,18.36
2022-08-12T05:53:26.244Z,18.47
2022-08-12T05:55:53.768Z,18.41
2022-08-12T05:58:21.257Z,18.53
2022-08-12T06:00:48.144Z,18.49
2022-08-12T06:03:19.491Z,18.57
2022-08-12T06:05:54.583Z,18.53
2022-08-12T06:08:24.920Z,18.71
2022-08-12T06:10:52.346Z,18.75
2022-08-12T06:13:27.931Z,18.83
2022-08-12T06:15:56.355Z,18.92
2022-08-12T06:18:26.629Z,18.97
2022-08-12T06:20:58.977Z,18.96
2022-08-12T06:23:29.787Z,19.10
2022-08-12T06:25:57.548Z,19.04
2022-08-12T06:28:25.470Z,19.22
2022-08-12T06:31:22.301Z,19.20
2022-08-12T06:33:55.299Z,19.18
2022-08-12T06:36:29.981Z,19.32
2022-08-12T06:38:59.589Z,19.44
2022-08-12T06:42:02.511Z,19.42
2022-08-12T06:44:32.565Z,19.47
2022-08-12T06:46:59.678Z,19.61
2022-08-12T06:49:28.210Z,19.53
2022-08-12T06:51:56.727Z,19.69
2022-08-12T06:54:31.031Z,19.81
2022-08-12T06:58:05.340Z,19.90
2022-08-12T06:59:48.589Z,19.95
2022-08-12T07:02:15.462Z,20.06
2022-08-12T07:04:43.381Z,20.06
2022-08-12T07:07:10.903Z,20.21
2022-08-12T07:10:01.582Z,20.23
2022-08-12T07:12:28.039Z,20.37
2022-08-12T07:14:59.037Z,20.42
2022-08-12T07:17:30.201Z,20.51
2022-08-12T07:20:03.448Z,20.50
2022-08-12T07:22:31.286Z,20.63
2022-08-12T07:25:16.454Z,20.69
2022-08-12T07:27:43.453Z,20.75
2022-08-12T07:30:11.160Z,20.81
2022-08-12T07:32:38.086Z,20.81
2022-08-12T07:35:05.439Z,20.87
2022-08-12T07:37:34.984Z,20.95
2022-08-12T07:40:02.023Z,21.02
2022-08-12T07:42:29.397Z,21.10
2022-08-12T07:44:56.841Z,21.13
2022-08-12T07:47:24.568Z,21.18
2022-08-12T07:50:04.991Z,21.32
2022-08-12T07:52:35.391Z,21.33
2022-08-12T07:55:05.019Z,21.37
2022-08-12T07:57:34.548Z,21.38
2022-08-12T08:00:05.676Z,21.49
2022-08-12T08:02:33.668Z,21.69
2022-08-12T08:05:00.898Z,21.84
2022-08-12T08:07:30.938Z,22.10
2022-08-12T08:10:00.131Z,22.08
2022-08-12T08:12:47.231Z,22.25
2022-08-12T08:15:15.554Z,22.14
2022-08-12T08:18:01.670Z,22.09
2022-08-12T08:20:44.811Z,22.10
2022-08-12T08:23:17.099Z,22.13
2022-08-12T08:25:45.563Z,22.29
2022-08-12T08:28:17.172Z,22.30
2022-08-12T08:30:46.504Z,22.38
2022-08-12T08:33:23.729Z,22.52
2022-08-12T08:36:03.222Z,22.57
2022-08-12T08:38:32.790Z,22.46
2022-08-12T08:42:14.032Z,22.69
2022-08-12T08:44:11.351Z,22.72
2022-08-12T08:46:40.196Z,22.81
2022-08-12T08:49:07.260Z,22.82
2022-08-12T08:51:34.432Z,23.02
2022-08-12T08:54:01.424Z,23.25
2022-08-12T08:56:31.120Z,23.19
2022-08-12T08:58:58.660Z,23.18
2022-08-12T09:01:26.830Z,23.12
2022-08-12T09:05:08.963Z,23.58
2022-08-12T09:06:56.352Z,23.85
2022-08-12T09:09:24.362Z,23.72
2022-08-12T09:12:27.692Z,23.69
2022-08-12T09:14:55.137Z,23.67
2022-08-12T09:17:22.458Z,23.52
2022-08-12T09:19:57.248Z,23.64
2022-08-12T09:22:29.171Z,23.73
2022-08-12T09:25:25.278Z,23.72
2022-08-12T09:28:04.905Z,23.75
2022-08-12T09:30:41.279Z,23.73
2022-08-12T09:33:15.072Z,24.13
2022-08-12T09:35:46.816Z,24.50
2022-08-12T09:38:32.103Z,24.55
2022-08-12T09:42:09.352Z,24.42
2022-08-12T09:44:06.074Z,24.29
2022-08-12T09:46:34.704Z,24.42
2022-08-12T09:49:04.107Z,24.59
2022-08-12T09:51:43.834Z,24.59
2022-08-12T09:54:33.424Z,25.20
2022-08-12T09:57:03.922Z,25.23
2022-08-12T10:00:12.798Z,25.06
2022-08-12T10:02:43.406Z,25.04
2022-08-12T10:05:17.920Z,24.90
2022-08-12T10:07:47.532Z,25.03
2022-08-12T10:10:22.335Z,25.63
2022-08-12T10:13:12.252Z,25.90
2022-08-12T10:16:02.225Z,25.93
2022-08-12T10:18:29.237Z,25.82
2022-08-12T10:20:57.071Z,25.89
2022-08-12T10:23:40.247Z,25.94
2022-08-12T10:26:37.889Z,25.98
2022-08-12T10:30:37.235Z,26.06
2022-08-12T10:32:44.080Z,26.08
2022-08-12T10:35:10.666Z,26.38
2022-08-12T10:38:38.690Z,26.46
2022-08-12T10:40:31.391Z,26.48
2022-08-12T10:43:18.652Z,26.39
2022-08-12T10:45:49.033Z,26.42
2022-08-12T10:48:33.560Z,26.49
2022-08-12T10:51:52.050Z,26.52
2022-08-12T10:54:00.880Z,26.75
2022-08-12T10:56:34.439Z,26.73
2022-08-12T10:59:05.690Z,27.11
2022-08-12T11:04:19.582Z,27.09
2022-08-12T11:04:39.456Z,27.11
2022-08-12T11:08:33.860Z,27.13
2022-08-12T11:10:01.544Z,27.31
2022-08-12T11:12:55.939Z,27.50
2022-08-12T11:15:24.184Z,27.71
2022-08-12T11:17:55.951Z,27.80
2022-08-12T11:20:29.007Z,27.87
2022-08-12T11:23:03.544Z,28.14
2022-08-12T11:25:56.296Z,29.92
2022-08-12T11:28:33.371Z,32.16
2022-08-12T11:31:12.106Z,33.32
2022-08-12T11:34:04.658Z,35.50
2022-08-12T11:36:30.782Z,37.99
2022-08-12T11:38:58.133Z,39.08
2022-08-12T11:41:31.076Z,39.98
2022-08-12T11:44:35.301Z,40.96
2022-08-12T11:46:52.719Z,40.47
2022-08-12T11:49:31.037Z,40.81
2022-08-12T11:52:01.109Z,38.44
2022-08-12T11:54:29.391Z,36.35
2022-08-12T11:57:01.971Z,34.79
2022-08-12T12:02:21.013Z,32.65
2022-08-12T12:04:52.517Z,32.41
2022-08-12T12:07:22.660Z,32.60
2022-08-12T12:10:01.362Z,31.95
2022-08-12T12:12:28.167Z,31.24
2022-08-12T12:14:55.863Z,31.00
2022-08-12T12:17:24.696Z,30.52
2022-08-12T12:19:53.261Z,30.27
2022-08-12T12:22:23.612Z,30.07
2022-08-12T12:24:54.399Z,29.68
2022-08-12T12:27:42.286Z,29.36
2022-08-12T12:30:18.573Z,29.30
2022-08-12T12:32:56.365Z,29.30
2022-08-12T12:36:18.182Z,29.30
2022-08-12T12:38:12.904Z,29.11
2022-08-12T12:40:46.227Z,29.11
2022-08-12T12:43:29.074Z,28.93
2022-08-12T12:46:05.598Z,28.82
2022-08-12T12:48:32.443Z,28.81
2022-08-12T12:51:48.848Z,28.80
2022-08-12T12:54:09.067Z,28.57
2022-08-12T12:56:44.314Z,28.62
2022-08-12T12:59:56.722Z,28.46
2022-08-12T13:02:07.674Z,28.90
2022-08-12T13:04:37.340Z,28.69
2022-08-12T13:07:05.888Z,28.68
2022-08-12T13:09:36.379Z,28.58
2022-08-12T13:12:08.846Z,28.40
2022-08-12T13:14:39.587Z,28.35
2022-08-12T13:17:10.318Z,28.25
2022-08-12T13:19:45.282Z,28.30
2022-08-12T13:22:18.534Z,28.22
2022-08-12T13:24:55.486Z,28.30
2022-08-12T13:27:35.136Z,28.21
2022-08-12T13:30:13.018Z,28.30
2022-08-12T13:32:57.156Z,28.25
2022-08-12T13:36:04.885Z,28.31
2022-08-12T13:38:41.035Z,28.38
2022-08-12T13:41:11.773Z,28.36
2022-08-12T13:43:40.627Z,28.49
2022-08-12T13:46:12.166Z,28.61
2022-08-12T13:48:45.145Z,28.57
2022-08-12T13:51:14.043Z,28.56
2022-08-12T13:53:59.261Z,28.54
2022-08-12T13:56:33.490Z,28.56
2022-08-12T13:59:05.590Z,28.85
2022-08-12T14:01:35.665Z,28.74
2022-08-12T14:04:11.610Z,28.66
2022-08-12T14:06:40.354Z,28.69
2022-08-12T14:09:17.840Z,28.74
2022-08-12T14:11:58.478Z,28.85
2022-08-12T14:14:31.317Z,28.83
2022-08-12T14:17:02.385Z,28.85
2022-08-12T14:19:37.966Z,28.76
2022-08-12T14:22:10.350Z,28.60
2022-08-12T14:24:40.256Z,28.56
2022-08-12T14:27:08.996Z,28.46
2022-08-12T14:30:04.893Z,28.33
2022-08-12T14:32:25.561Z,28.33
2022-08-12T14:34:53.055Z,28.40
2022-08-12T14:37:56.332Z,28.30
2022-08-12T14:40:11.756Z,28.37
2022-08-12T14:42:46.960Z,28.45
2022-08-12T14:45:14.113Z,28.47
2022-08-12T14:47:58.326Z,28.33
2022-08-12T14:50:58.815Z,28.34
2022-08-12T14:55:13.870Z,28.29
2022-08-12T14:59:23.308Z,28.23
2022-08-12T15:01:52.041Z,28.12
2022-08-12T15:04:28.595Z,27.99
2022-08-12T15:06:56.208Z,28.07
2022-08-12T15:09:29.133Z,28.06
2022-08-12T15:12:03.531Z,28.07
2022-08-12T15:14:32.018Z,28.08
2022-08-12T15:17:00.236Z,28.07
2022-08-12T15:20:30.767Z,28.06
2022-08-12T15:22:36.847Z,28.02
2022-08-12T15:25:07.499Z,28.01
2022-08-12T15:28:03.650Z,28.03
2022-08-12T15:30:30.692Z,28.05
2022-08-12T15:32:57.631Z,28.02
2022-08-12T15:35:27.518Z,28.00
2022-08-12T15:38:12.044Z,28.06
2022-08-12T15:40:46.850Z,28.21
2022-08-12T15:44:15.601Z,28.25
2022-08-12T15:46:06.262Z,28.34
2022-08-12T15:48:34.174Z,28.36
2022-08-12T15:51:03.143Z,28.43
2022-08-12T15:53:53.254Z,28.45
2022-08-12T15:56:29.510Z,28.50
2022-08-12T15:59:00.570Z,28.46
2022-08-12T16:01:35.028Z,28.57
2022-08-12T16:04:05.507Z,28.57
2022-08-12T16:09:22.256Z,28.51
2022-08-12T16:12:12.151Z,28.45
2022-08-12T16:14:39.697Z,28.48
2022-08-12T16:17:08.833Z,28.42
2022-08-12T16:20:02.968Z,28.36
2022-08-12T16:22:29.247Z,28.21
2022-08-12T16:24:57.065Z,28.18
2022-08-12T16:27:25.494Z,28.10
2022-08-12T16:29:57.414Z,28.07
2022-08-12T16:32:31.561Z,28.09
2022-08-12T16:35:00.595Z,28.09
2022-08-12T16:38:04.792Z,28.03
2022-08-12T16:40:15.743Z,28.13
2022-08-12T16:42:54.077Z,28.19
2022-08-12T16:46:08.025Z,28.23
2022-08-12T16:48:33.853Z,28.25
2022-08-12T16:51:10.563Z,28.26
2022-08-12T16:53:44.507Z,28.17
2022-08-12T16:56:15.166Z,28.18
2022-08-12T16:58:43.461Z,28.26
2022-08-12T17:01:14.597Z,28.29
2022-08-12T17:03:52.865Z,28.17
2022-08-12T17:06:27.551Z,28.28
2022-08-12T17:09:02.608Z,28.26
2022-08-12T17:11:31.099Z,28.22
2022-08-12T17:14:01.546Z,28.18
2022-08-12T17:16:30.348Z,28.16
2022-08-12T17:18:59.704Z,28.14
2022-08-12T17:21:41.328Z,28.16
2022-08-12T17:24:22.355Z,28.17
2022-08-12T17:26:57.496Z,28.21
2022-08-12T17:30:00.798Z,28.18
2022-08-12T17:32:14.366Z,28.11
2022-08-12T17:35:00.599Z,28.03
2022-08-12T17:37:27.898Z,28.09
2022-08-12T17:40:12.631Z,28.04
2022-08-12T17:42:47.499Z,27.95
2022-08-12T17:45:19.663Z,27.90
2022-08-12T17:48:01.768Z,27.95
2022-08-12T17:50:34.807Z,27.89
2022-08-12T17:53:02.753Z,27.78
2022-08-12T17:55:44.253Z,27.79
2022-08-12T17:58:37.647Z,27.69
2022-08-12T18:01:06.084Z,27.68
2022-08-12T18:04:05.536Z,27.59
2022-08-12T18:06:27.821Z,27.48
2022-08-12T18:08:59.174Z,27.45
2022-08-12T18:12:05.070Z,27.38
2022-08-12T18:14:36.940Z,27.31
2022-08-12T18:17:08.730Z,27.32
2022-08-12T18:20:04.230Z,27.20
2022-08-12T18:22:33.515Z,27.14
2022-08-12T18:25:08.090Z,27.15
2022-08-12T18:28:15.615Z,27.00
2022-08-12T18:30:53.368Z,27.01
2022-08-12T18:33:25.477Z,26.95
2022-08-12T18:35:55.521Z,26.89
2022-08-12T18:38:25.398Z,26.83
2022-08-12T18:41:21.383Z,26.77
2022-08-12T18:44:08.167Z,26.71
2022-08-12T18:46:55.789Z,26.60
2022-08-12T18:49:34.944Z,26.57
2022-08-12T18:52:07.790Z,26.45
2022-08-12T18:54:41.586Z,26.36
2022-08-12T18:57:45.466Z,26.40
2022-08-12T19:00:07.639Z,26.32
2022-08-12T19:02:39.623Z,26.18
2022-08-12T19:05:12.069Z,26.15
2022-08-12T19:07:49.718Z,26.17
2022-08-12T19:10:25.968Z,26.06
2022-08-12T19:13:21.015Z,26.05
2022-08-12T19:15:57.843Z,25.91
2022-08-12T19:18:30.068Z,25.92
2022-08-12T19:21:06.336Z,25.95
2022-08-12T19:23:35.561Z,25.90
2022-08-12T19:26:04.432Z,25.87
2022-08-12T19:28:36.173Z,25.75
2022-08-12T19:31:56.593Z,25.75
2022-08-12T19:37:27.048Z,25.67
2022-08-12T19:40:08.755Z,25.60
2022-08-12T19:42:53.347Z,25.55
2022-08-12T19:45:20.835Z,25.53
2022-08-12T19:47:49.103Z,25.40
2022-08-12T19:50:19.905Z,25.35
2022-08-12T19:52:53.051Z,25.32
2022-08-12T19:55:22.612Z,25.31
2022-08-12T19:58:03.080Z,25.19
2022-08-12T20:00:35.023Z,25.20
2022-08-12T20:03:04.275Z,25.07
2022-08-12T20:06:05.566Z,25.03
2022-08-12T20:08:33.173Z,25.02
2022-08-12T20:12:12.014Z,25.04
2022-08-12T20:14:00.720Z,25.02
2022-08-12T20:16:57.705Z,24.89
2022-08-12T20:19:53.062Z,24.84
2022-08-12T20:22:16.649Z,24.84
2022-08-12T20:24:51.021Z,24.74
2022-08-12T20:27:29.349Z,24.70
2022-08-12T20:30:13.498Z,24.72
2022-08-12T20:32:58.608Z,24.70
2022-08-12T20:35:39.050Z,24.65
2022-08-12T20:38:26.737Z,24.54
2022-08-12T20:40:55.712Z,24.46
2022-08-12T20:43:28.252Z,24.43
2022-08-12T20:45:58.426Z,24.47
2022-08-12T20:48:28.722Z,24.39
2022-08-12T20:51:04.262Z,24.26
2022-08-12T20:53:57.751Z,24.25
2022-08-12T20:56:31.220Z,24.20
2022-08-12T20:59:01.472Z,24.15
2022-08-12T21:01:46.290Z,24.06
2022-08-12T21:04:35.051Z,24.05
2022-08-12T21:07:08.443Z,24.02
2022-08-12T21:09:42.031Z,23.96
2022-08-12T21:12:28.527Z,23.81
2022-08-12T21:15:23.677Z,23.81
2022-08-12T21:18:09.175Z,23.72
2022-08-12T21:20:53.107Z,23.61
2022-08-12T21:23:21.203Z,23.58
2022-08-12T21:25:50.986Z,23.60
2022-08-12T21:28:22.330Z,23.35
2022-08-12T21:31:11.527Z,23.20
2022-08-12T21:33:58.483Z,23.28
2022-08-12T21:36:35.051Z,23.22
2022-08-12T21:39:20.401Z,23.23
2022-08-12T21:41:52.126Z,23.11
2022-08-12T21:44:24.875Z,23.06
2022-08-12T21:47:20.838Z,22.98
2022-08-12T21:50:03.269Z,22.99
2022-08-12T21:52:37.478Z,22.94
2022-08-12T21:55:18.911Z,22.77
2022-08-12T21:57:54.831Z,22.80
2022-08-12T22:00:34.313Z,22.69
2022-08-12T22:04:03.113Z,22.57
2022-08-12T22:06:30.671Z,22.44
2022-08-12T22:09:16.942Z,22.23
2022-08-12T22:11:49.073Z,22.47
2022-08-12T22:14:28.166Z,22.35
2022-08-12T22:16:57.480Z,22.30
2022-08-12T22:19:24.508Z,22.26
2022-08-12T22:21:54.965Z,22.28
2022-08-12T22:24:26.811Z,22.23
2022-08-12T22:27:17.974Z,22.05
2022-08-12T22:30:07.104Z,22.10
2022-08-12T22:32:38.574Z,22.09
2022-08-12T22:35:29.139Z,22.04
2022-08-12T22:37:56.965Z,21.95
2022-08-12T22:40:23.985Z,21.78
2022-08-12T22:43:15.565Z,21.78
2022-08-12T22:46:01.483Z,21.81
2022-08-12T22:48:28.377Z,21.66
2022-08-12T22:50:59.322Z,21.57
2022-08-12T22:53:35.820Z,21.62
2022-08-12T22:56:07.968Z,21.45
2022-08-12T22:58:40.645Z,21.49
2022-08-12T23:01:10.872Z,21.55
2022-08-12T23:03:48.647Z,21.56
2022-08-12T23:06:19.917Z,21.50
2022-08-12T23:08:48.181Z,21.36
2022-08-12T23:11:16.070Z,21.37
2022-08-12T23:13:55.525Z,21.43
2022-08-12T23:16:31.078Z,21.36
2022-08-12T23:19:09.871Z,21.21
2022-08-12T23:22:05.954Z,21.13
2022-08-12T23:24:32.257Z,21.12
2022-08-12T23:27:21.566Z,21.14
2022-08-12T23:30:17.962Z,21.05
2022-08-12T23:32:37.025Z,21.07
2022-08-12T23:35:07.035Z,20.79
2022-08-12T23:37:46.568Z,20.72
2022-08-12T23:40:18.234Z,20.58
2022-08-12T23:42:46.820Z,20.67
2022-08-12T23:45:20.800Z,20.60
2022-08-12T23:48:00.311Z,20.60
2022-08-12T23:50:34.108Z,20.61
2022-08-12T23:53:22.348Z,20.54
2022-08-12T23:55:50.703Z,20.46
2022-08-12T23:58:23.155Z,20.18
